SECU/CUE METAR and TAF weather

Enter ICAO airport designator
Station Type Date Time Source
SECU METAR 2022/01/25 05:00 UTC NOAA

SECU 250500Z AUTO 24005KT 220V280 ////NDV ////// 15/13 Q1024 A3025


Station Type Date Time Source
SECU Decoded METAR 2022/01/25 05:00 UTC NOAA

Cuenca / Mariscal Lamar, Ecuador (SECU) 02-53S 078-59W 2531M
Jan 25, 2022 - 12:00 AM EST / 2022.01.25 0500 UTC
Wind: from the WSW (240 degrees) at 6 MPH (5 KT) (direction variable):0
Temperature: 59 F (15 C)
Dew Point: 55 F (13 C)
Relative Humidity: 87%
Pressure (altimeter): 30.25 in. Hg (1024 hPa)
ob: SECU 250500Z AUTO 24005KT 220V280 ////NDV ////// 15/13 Q1024 A3025
cycle: 5

Station Type Date Time Source
SECU TAF 2019/10/28 06:45 UTC NOAA

TAF SECU 280435Z 2806/2906 VRB03KT 9999 FEW010 BKN033
BECMG 2814/2815 05005KT BKN040 BKN100 TX20/2819Z TN12/2811Z

Example: see airport list